Terminal Aerodrome Forecast
Issued by NWS

Home | Current Version | Previous Version | Text Only | Print | Product List | Glossary On
Versions: 1 2 3 4 5 6 7 8 9 10 11 12 13 14 15
000
FTUS43 KDTX 231959 AAB
TAFDET
TAF AMD
KDET 231959Z 2320/2418 15010G18KT 6SM -SHRA BR FEW018 BKN040 OVC080
     FM232300 18012G22KT 5SM -RA BR BKN010 OVC040
     FM240300 22018G28KT 6SM BR VCSH BKN016 OVC040
     FM241000 20012G20KT P6SM BKN028 OVC060
     FM241500 20015G25KT P6SM -SHRA SCT025 OVC040=

USA.gov is the U.S. government's official web portal to all federal, state and local government web resources and services.